Lockerbie, United Kingdom
Current Conditions -  °F | °C
As of 9:50 AM on Tuesday 21 Oct 2014 (Local Time) from EGNC Reporting Station
Scattered Clouds Scattered Clouds  
Wind Chill: 41°   Ceiling: Unl
Heat Index: 48°   Visibility: 6mi
Dew Point: 41°   Wind: 21mph
Humidity: 76%   Direction: 270°W
Pressure: 29.38"   Gusts: NA
Location:  55.12°N, 3.36°W
Report Text: EGNC 210850Z 27018KT 240V310 9999 FEW016 SCT022 09/05 Q0995
Loading
Personal Weather Stations






























Interactive Weather Map New forecast layout! Learn more

10-Day Weather Forecast

Advertisements
Track Severe Weather on mobile